Aérodrome :
LOGIN :

S'inscrire | Disclaimer

   EN    FR    IT 

 










Légende :    VFR   VFR Marginal   IFR   IFR Intensif   IFR Très Intensif
Visi : 
Plafond : 
>= 8 km
>= 3000ft
5 à 8 km
1000 à 3000 ft
1500m à 5 km
500 à 1000 ft
800 à 1500m
200 à 500 ft
< 800m
< 200 ft
Symboles :   Orages  Brouillard  Fortes neiges  Fortes précipitations  Vent > 20 kt
SIGMETs :   Divers  Orages  Givrage  Turbulence  Onde Orograph.  Cendres Volcan.






- Altitude de l'aérodrome : 468 ft
- Code IATA : GRO


LEGE - Girona Costa Brava

DERNIER METAR :
  • 110030Z 36003KT CAVOK 23/21 Q1015

METARs EXPIRÉS :
  • 110000Z 36003KT 320V030 CAVOK 23/21 Q1015
  • 102330Z 01003KT CAVOK 23/21 Q1015
  • 102300Z 03004KT 360V060 CAVOK 24/21 Q1015
  • 102230Z 02008KT CAVOK 24/21 Q1015
  • 102200Z 01005KT 340V040 CAVOK 25/21 Q1015

TAF TAF LEGE
Valide du 11 à 00h jusqu'au 12 à 00h UTC


102300Z 1100/1124 02005KT 9999 FEW030 TX36/1113Z TN19/1105Z
BECMG 1108/1110 18010KT
PROB30
TEMPO 1111/1116 FEW040CB
BECMG 1119/1121 VRB03KT



MET'MAP, la Météo Aéronautique d'un coup d'oeil ! - Copyright ORBIFLY Décembre 2007 - Disclaimer

ORBIFLY MET'MAP TEAM :

Programmation & Développement : Alexandra Zaïnal
Sur une idée originale de : Baudouin d'Aumeries
Assistance à la programmation : Marc-Olivier Méhu
Soutien technique & logistique : Manuel Goepfert

Contact : metmap@orbifly.com




SOURCES & CREDITS :

   NOAA